Airfield :
LOGIN :

Register | Disclaimer

   EN    FR    IT 

 










Legend :    VFR   Marginal VFR   IFR   Intensive IFR   Very Intensive IFR
Visi :
Ceiling :
>= 8 km
>= 3000ft
5 to 8 km
1000 to 3000 ft
1500m to 5 km
500 to 1000 ft
800 to 1500m
200 to 500 ft
< 800m
< 200 ft
Symbols :   Thunderstorms  Fog  Heavy snow  Heavy precipitations  Wind > 20 kt
SIGMETs :     Misc.  Thunderstorms  Icing  Turbulence  Mountain Waves  Volcanic Ashes







- Airport Elevation : 228 ft
- IATA code : OPO


LPPR - Porto Fr. Sa Carneiro

CURRENT METAR :
  • 280630Z 31007KT 9999 FEW020 18/15 Q1012

EXPIRED METARs :
  • 280600Z 31006KT 280V340 9000 FEW015 SCT032 17/17 Q1011
  • 280530Z 30009KT 280V340 8000 SCT004 BKN025 17/17 Q1011
  • 280500Z 22009KT 190V260 7000 BKN003 OVC009 18/18 Q1010 RESHRA
  • 280430Z 22008KT 180V250 4500 SHRA BR BKN004 18/18 Q1010
  • 280400Z 21008KT 9999 OVC003 18/18 Q1011

TAF TAF LPPR
Valid from the 28 at 06:00 until the 29 at 06:00 UTC


280500Z 2806/2906 22012KT 3000 RADZ BR BKN003
BECMG 2806/2808 27015KT SCT018 SCT030
TEMPO 2808/2812 8000 SHRA BKN015
BECMG 2810/2812 32015KT
BECMG 2820/2822 33008KT
No reported NOTAMs for that airfield.



MET'MAP, your aeronautical weather chart ! - Copyright ORBIFLY December 2007 - Disclaimer

ORBIFLY MET'MAP TEAM :

Programming & Development : Alexandra Zaïnal
Concept & Development : Baudouin d'Aumeries
Co-Development & Prog : Marc-Olivier Méhu
Technical & hardware support : Manuel Goepfert

Contact : metmap@orbifly.com




SOURCES & CREDITS :

   NOAA